createdAt,value
2018-12-26T00:00:50.252Z,79.94
2018-12-26T00:01:50.242Z,81.09
2018-12-26T00:02:50.233Z,80.98
2018-12-26T00:03:50.232Z,80.15
2018-12-26T00:04:50.209Z,81.19
2018-12-26T00:05:50.235Z,80.88
2018-12-26T00:06:50.193Z,80.77
2018-12-26T00:07:50.179Z,80.15
2018-12-26T00:08:50.174Z,80.88
2018-12-26T00:09:50.156Z,80.57
2018-12-26T00:10:50.217Z,80.77
2018-12-26T00:11:50.134Z,80.46
2018-12-26T00:12:50.123Z,80.67
2018-12-26T00:13:50.121Z,80.57
2018-12-26T00:14:50.104Z,80.15
2018-12-26T00:15:50.091Z,80.46
2018-12-26T00:16:50.081Z,80.88
2018-12-26T00:17:50.071Z,79.39
2018-12-26T00:18:50.068Z,79.94
2018-12-26T00:19:50.084Z,80.98
2018-12-26T00:20:50.041Z,80.77
2018-12-26T00:21:50.027Z,80.94
2018-12-26T00:22:50.017Z,80.43
2018-12-26T00:23:50.043Z,80.63
2018-12-26T00:24:49.996Z,80.94
2018-12-26T00:25:49.984Z,80.46
2018-12-26T00:26:49.978Z,80.05
2018-12-26T00:27:49.965Z,80.88
2018-12-26T00:28:49.979Z,80.88
2018-12-26T00:29:49.945Z,80.74
2018-12-26T00:30:49.929Z,80.53
2018-12-26T00:31:49.921Z,80.43
2018-12-26T00:32:49.925Z,80.98
2018-12-26T00:33:49.897Z,80.63
2018-12-26T00:34:49.896Z,80.53
2018-12-26T00:35:49.875Z,80.74
2018-12-26T00:36:49.869Z,80.98
2018-12-26T00:37:49.856Z,80.53
2018-12-26T00:38:49.841Z,80.43
2018-12-26T00:39:49.859Z,80.98
2018-12-26T00:40:49.821Z,80.57
2018-12-26T00:41:49.809Z,80.63
2018-12-26T00:42:49.800Z,80.63
2018-12-26T00:43:49.787Z,80.84
2018-12-26T00:44:49.792Z,80.22
2018-12-26T00:45:49.765Z,80.84
2018-12-26T00:46:49.757Z,79.49
2018-12-26T00:47:49.825Z,80.94
2018-12-26T00:48:49.735Z,79.91
2018-12-26T00:49:49.735Z,80.22
2018-12-26T00:50:49.712Z,80.46
2018-12-26T00:51:49.700Z,80.74
2018-12-26T00:52:49.690Z,80.94
2018-12-26T00:53:49.679Z,80.53
2018-12-26T00:54:49.677Z,80.84
2018-12-26T00:55:49.660Z,80.84
2018-12-26T00:56:49.646Z,80.32
2018-12-26T00:57:49.635Z,80.94
2018-12-26T00:58:49.623Z,81.05
2018-12-26T00:59:49.649Z,80.94
2018-12-26T01:00:49.607Z,80.63
2018-12-26T01:01:49.591Z,80.84
2018-12-26T01:02:49.581Z,80.63
2018-12-26T01:03:49.715Z,80.74
2018-12-26T01:04:49.559Z,79.91
2018-12-26T01:05:49.557Z,80.74
2018-12-26T01:06:49.537Z,80.63
2018-12-26T01:07:49.525Z,80.63
2018-12-26T01:08:49.515Z,81.15
2018-12-26T01:09:49.504Z,80.74
2018-12-26T01:10:49.502Z,80.11
2018-12-26T01:11:49.485Z,80.53
2018-12-26T01:12:49.471Z,80.11
2018-12-26T01:13:49.462Z,80.01
2018-12-26T01:14:49.450Z,80.63
2018-12-26T01:15:49.447Z,80.22
2018-12-26T01:16:49.429Z,80.94
2018-12-26T01:17:49.418Z,81.05
2018-12-26T01:18:49.409Z,80.53
2018-12-26T01:19:49.396Z,81.05
2018-12-26T01:20:49.393Z,80.94
2018-12-26T01:21:49.414Z,81.05
2018-12-26T01:22:49.363Z,80.43
2018-12-26T01:23:49.354Z,80.01
2018-12-26T01:24:49.354Z,80.84
2018-12-26T01:25:49.338Z,80.74
2018-12-26T01:26:49.320Z,80.74
2018-12-26T01:27:49.309Z,81.15
2018-12-26T01:28:49.302Z,80.84
2018-12-26T01:29:49.287Z,80.74
2018-12-26T01:30:49.286Z,80.63
2018-12-26T01:31:49.266Z,80.53
2018-12-26T01:32:49.254Z,80.63
2018-12-26T01:33:49.245Z,80.63
2018-12-26T01:34:49.236Z,80.53
2018-12-26T01:35:49.234Z,80.63
2018-12-26T01:36:49.211Z,80.63
2018-12-26T01:37:49.200Z,80.94
2018-12-26T01:38:49.189Z,81.25
2018-12-26T01:39:49.179Z,80.53
2018-12-26T01:40:49.199Z,80.74
2018-12-26T01:41:49.162Z,81.05
2018-12-26T01:42:49.147Z,80.74
2018-12-26T01:43:49.137Z,81.25
2018-12-26T01:44:49.126Z,81.15
2018-12-26T01:45:49.115Z,81.46
2018-12-26T01:46:49.111Z,81.35
2018-12-26T01:47:49.097Z,81.35
2018-12-26T01:48:49.081Z,81.35
2018-12-26T01:49:49.071Z,81.15
2018-12-26T01:50:49.063Z,81.35
2018-12-26T01:51:49.060Z,81.56
2018-12-26T01:52:49.042Z,81.46
2018-12-26T01:53:49.026Z,81.35
2018-12-26T01:54:49.016Z,82.60
2018-12-26T01:55:49.005Z,81.56
2018-12-26T01:56:49.002Z,81.39
2018-12-26T01:57:48.983Z,81.67
2018-12-26T01:58:48.972Z,81.67
2018-12-26T01:59:48.961Z,81.56
2018-12-26T02:00:48.956Z,81.56
2018-12-26T02:01:48.949Z,81.25
2018-12-26T02:02:48.928Z,81.46
2018-12-26T02:03:48.921Z,81.56
2018-12-26T02:04:48.908Z,81.46
2018-12-26T02:05:48.906Z,81.35
2018-12-26T02:06:48.896Z,81.35
2018-12-26T02:07:48.875Z,81.35
2018-12-26T02:08:48.864Z,82.39
2018-12-26T02:09:48.856Z,81.49
2018-12-26T02:10:48.844Z,81.29
2018-12-26T02:11:48.852Z,81.60
2018-12-26T02:12:48.829Z,81.35
2018-12-26T02:13:48.811Z,81.19
2018-12-26T02:14:48.801Z,81.15
2018-12-26T02:15:48.789Z,81.35
2018-12-26T02:16:48.786Z,81.46
2018-12-26T02:17:48.768Z,81.56
2018-12-26T02:18:48.757Z,81.56
2018-12-26T02:19:48.747Z,81.46
2018-12-26T02:20:48.736Z,81.49
2018-12-26T02:21:48.736Z,81.15
2018-12-26T02:22:48.714Z,81.15
2018-12-26T02:23:48.704Z,81.35
2018-12-26T02:24:48.696Z,81.46
2018-12-26T02:25:48.682Z,81.46
2018-12-26T02:26:48.720Z,80.53
2018-12-26T02:27:48.661Z,81.46
2018-12-26T02:28:48.650Z,81.39
2018-12-26T02:29:48.641Z,81.15
2018-12-26T02:30:48.631Z,81.15
2018-12-26T02:31:48.634Z,81.49
2018-12-26T02:32:48.617Z,81.35
2018-12-26T02:33:48.598Z,81.46
2018-12-26T02:34:48.587Z,81.15
2018-12-26T02:35:48.576Z,81.67
2018-12-26T02:36:48.564Z,81.46
2018-12-26T02:37:48.566Z,81.39
2018-12-26T02:38:48.543Z,81.39
2018-12-26T02:39:48.533Z,82.22
2018-12-26T02:40:48.522Z,81.67
2018-12-26T02:41:48.511Z,82.22
2018-12-26T02:42:48.508Z,82.29
2018-12-26T02:43:48.490Z,81.56
2018-12-26T02:44:48.479Z,81.46
2018-12-26T02:45:48.487Z,81.70
2018-12-26T02:46:48.459Z,81.35
2018-12-26T02:47:48.454Z,81.39
2018-12-26T02:48:48.435Z,81.67
2018-12-26T02:49:48.425Z,81.67
2018-12-26T02:50:48.423Z,81.46
2018-12-26T02:51:48.505Z,81.49
2018-12-26T02:52:48.401Z,81.15
2018-12-26T02:53:48.382Z,81.49
2018-12-26T02:54:48.373Z,81.29
2018-12-26T02:55:48.364Z,81.39
2018-12-26T02:56:49.146Z,81.35
2018-12-26T02:57:48.352Z,82.43
2018-12-26T02:58:48.328Z,81.19
2018-12-26T02:59:48.318Z,82.50
2018-12-26T03:00:48.307Z,81.60
2018-12-26T03:01:48.302Z,81.60
2018-12-26T03:02:48.321Z,81.29
2018-12-26T03:03:48.280Z,81.39
2018-12-26T03:04:48.264Z,81.46
2018-12-26T03:05:48.253Z,81.15
2018-12-26T03:06:48.243Z,80.57
2018-12-26T03:07:48.233Z,81.15
2018-12-26T03:08:48.232Z,81.46
2018-12-26T03:09:48.247Z,81.05
2018-12-26T03:10:48.199Z,81.70
2018-12-26T03:11:48.189Z,81.19
2018-12-26T03:12:48.177Z,81.19
2018-12-26T03:13:48.180Z,81.25
2018-12-26T03:14:48.157Z,81.70
2018-12-26T03:15:48.150Z,81.39
2018-12-26T03:16:48.135Z,81.19
2018-12-26T03:17:48.125Z,81.60
2018-12-26T03:18:48.123Z,81.39
2018-12-26T03:19:48.107Z,81.60
2018-12-26T03:20:48.099Z,81.49
2018-12-26T03:21:48.082Z,81.70
2018-12-26T03:22:48.070Z,81.60
2018-12-26T03:23:48.066Z,82.64
2018-12-26T03:24:48.051Z,81.19
2018-12-26T03:25:48.044Z,81.19
2018-12-26T03:26:56.007Z,81.49
2018-12-26T03:27:49.050Z,81.49
2018-12-26T03:28:48.014Z,81.49
2018-12-26T03:29:47.997Z,81.29
2018-12-26T03:30:47.997Z,82.53
2018-12-26T03:31:47.975Z,81.49
2018-12-26T03:32:47.963Z,81.49
2018-12-26T03:33:47.979Z,81.70
2018-12-26T03:34:47.942Z,81.60
2018-12-26T03:35:47.931Z,81.46
2018-12-26T03:36:47.919Z,81.49
2018-12-26T03:37:47.907Z,80.98
2018-12-26T03:38:47.897Z,81.81
2018-12-26T03:39:47.894Z,81.19
2018-12-26T03:40:47.875Z,82.64
2018-12-26T03:41:47.865Z,81.60
2018-12-26T03:42:47.853Z,81.60
2018-12-26T03:43:47.845Z,81.60
2018-12-26T03:44:47.840Z,82.64
2018-12-26T03:45:47.824Z,82.43
2018-12-26T03:46:47.813Z,82.32
2018-12-26T03:47:47.801Z,82.32
2018-12-26T03:48:47.788Z,82.43
2018-12-26T03:49:47.786Z,82.32
2018-12-26T03:50:47.767Z,82.32
2018-12-26T03:51:47.761Z,82.32
2018-12-26T03:52:47.747Z,82.43
2018-12-26T03:53:47.737Z,82.32
2018-12-26T03:54:47.732Z,82.22
2018-12-26T03:55:47.713Z,82.32
2018-12-26T03:56:47.727Z,82.32
2018-12-26T03:57:47.714Z,82.22
2018-12-26T03:58:47.688Z,82.22
2018-12-26T03:59:47.683Z,82.22
2018-12-26T04:00:47.661Z,82.22
2018-12-26T04:01:47.649Z,82.43
2018-12-26T04:02:47.638Z,82.43
2018-12-26T04:03:47.638Z,82.32
2018-12-26T04:04:47.641Z,82.43
2018-12-26T04:05:47.605Z,82.53
2018-12-26T04:06:47.595Z,82.64
2018-12-26T04:07:47.585Z,82.12
2018-12-26T04:08:47.572Z,82.22
2018-12-26T04:09:47.575Z,82.53
2018-12-26T04:10:47.552Z,82.32
2018-12-26T04:11:47.542Z,82.22
2018-12-26T04:12:47.532Z,82.53
2018-12-26T04:13:47.586Z,82.43
2018-12-26T04:14:47.508Z,82.64
2018-12-26T04:15:47.511Z,82.53
2018-12-26T04:16:47.488Z,83.05
2018-12-26T04:17:47.478Z,82.95
2018-12-26T04:18:47.472Z,82.84
2018-12-26T04:19:47.454Z,83.15
2018-12-26T04:20:47.451Z,83.15
2018-12-26T04:21:47.433Z,83.36
2018-12-26T04:22:47.422Z,83.15
2018-12-26T04:23:47.415Z,83.36
2018-12-26T04:24:47.409Z,83.56
2018-12-26T04:25:47.404Z,83.36
2018-12-26T04:26:47.378Z,83.05
2018-12-26T04:27:47.377Z,83.67
2018-12-26T04:28:47.357Z,83.77
2018-12-26T04:29:47.349Z,83.67
2018-12-26T04:30:47.347Z,83.87
2018-12-26T04:31:47.323Z,84.29
2018-12-26T04:32:47.314Z,84.29
2018-12-26T04:33:47.333Z,84.39
2018-12-26T04:34:47.291Z,84.81
2018-12-26T04:35:47.291Z,84.91
2018-12-26T04:36:47.271Z,84.29
2018-12-26T04:37:47.258Z,84.91
2018-12-26T04:38:47.248Z,84.29
2018-12-26T04:39:47.237Z,84.33
2018-12-26T04:40:47.238Z,85.36
2018-12-26T04:41:47.216Z,84.91
2018-12-26T04:42:47.204Z,84.84
2018-12-26T04:43:47.193Z,84.74
2018-12-26T04:44:47.182Z,85.26
2018-12-26T04:45:47.182Z,84.91
2018-12-26T04:46:47.163Z,85.36
2018-12-26T04:47:47.155Z,85.47
2018-12-26T04:48:47.139Z,85.26
2018-12-26T04:49:47.128Z,85.26
2018-12-26T04:50:47.126Z,85.53
2018-12-26T04:51:47.109Z,85.84
2018-12-26T04:52:47.099Z,85.88
2018-12-26T04:53:47.084Z,85.88
2018-12-26T04:54:47.076Z,85.99
2018-12-26T04:55:47.074Z,85.74
2018-12-26T04:56:47.051Z,85.36
2018-12-26T04:57:47.041Z,85.26
2018-12-26T04:58:47.030Z,85.68
2018-12-26T04:59:47.021Z,85.84
2018-12-26T05:00:47.022Z,85.78
2018-12-26T05:01:46.998Z,85.78
2018-12-26T05:02:46.989Z,86.19
2018-12-26T05:03:46.978Z,85.78
2018-12-26T05:04:46.965Z,85.99
2018-12-26T05:05:46.963Z,85.88
2018-12-26T05:06:46.946Z,85.88
2018-12-26T05:07:46.934Z,85.47
2018-12-26T05:08:46.923Z,85.94
2018-12-26T05:09:46.912Z,85.88
2018-12-26T05:10:46.909Z,85.88
2018-12-26T05:11:46.889Z,85.88
2018-12-26T05:12:46.879Z,85.99
2018-12-26T05:13:46.898Z,85.88
2018-12-26T05:14:46.857Z,85.78
2018-12-26T05:15:47.049Z,85.68
2018-12-26T05:16:46.835Z,86.09
2018-12-26T05:17:46.825Z,85.78
2018-12-26T05:18:46.814Z,85.94
2018-12-26T05:19:46.804Z,85.88
2018-12-26T05:20:46.794Z,85.99
2018-12-26T05:21:46.790Z,85.88
2018-12-26T05:22:46.772Z,86.19
2018-12-26T05:23:46.758Z,85.57
2018-12-26T05:24:46.804Z,86.09
2018-12-26T05:25:46.745Z,86.09
2018-12-26T05:26:46.736Z,85.99
2018-12-26T05:27:46.717Z,85.99
2018-12-26T05:28:46.719Z,86.09
2018-12-26T05:29:46.694Z,85.53
2018-12-26T05:30:46.742Z,86.09
2018-12-26T05:31:46.685Z,85.88
2018-12-26T05:32:46.661Z,86.29
2018-12-26T05:33:46.653Z,86.09
2018-12-26T05:34:46.641Z,86.15
2018-12-26T05:35:46.630Z,86.40
2018-12-26T05:36:46.626Z,85.88
2018-12-26T05:37:46.608Z,86.19
2018-12-26T05:38:46.597Z,86.29
2018-12-26T05:39:46.589Z,86.19
2018-12-26T05:40:46.575Z,86.19
2018-12-26T05:41:46.572Z,86.40
2018-12-26T05:42:46.554Z,86.71
2018-12-26T05:43:46.543Z,86.81
2018-12-26T05:44:46.535Z,86.81
2018-12-26T05:45:46.525Z,86.71
2018-12-26T05:46:46.520Z,86.71
2018-12-26T05:47:46.500Z,86.71
2018-12-26T05:48:46.489Z,87.02
2018-12-26T05:49:46.483Z,86.91
2018-12-26T05:50:46.470Z,87.02
2018-12-26T05:51:46.467Z,87.23
2018-12-26T05:52:46.447Z,87.23
2018-12-26T05:53:46.439Z,87.23
2018-12-26T05:54:46.425Z,87.23
2018-12-26T05:55:46.415Z,87.74
2018-12-26T05:56:46.441Z,87.23
2018-12-26T05:57:46.392Z,87.43
2018-12-26T05:58:46.381Z,87.54
2018-12-26T05:59:46.371Z,87.43
2018-12-26T06:00:46.363Z,87.43
2018-12-26T06:01:46.350Z,87.54
2018-12-26T06:02:46.358Z,87.54
2018-12-26T06:03:46.331Z,87.64
2018-12-26T06:04:46.318Z,88.16
2018-12-26T06:05:46.317Z,88.46
2018-12-26T06:06:46.300Z,88.36
2018-12-26T06:07:46.301Z,88.46
2018-12-26T06:08:46.278Z,88.78
2018-12-26T06:09:46.265Z,88.78
2018-12-26T06:10:46.255Z,88.98
2018-12-26T06:11:46.243Z,89.09
2018-12-26T06:12:46.242Z,89.03
2018-12-26T06:13:46.222Z,89.13
2018-12-26T06:14:46.217Z,89.19
2018-12-26T06:15:46.200Z,89.75
2018-12-26T06:16:46.190Z,89.23
2018-12-26T06:17:46.188Z,88.98
2018-12-26T06:18:46.169Z,89.40
2018-12-26T06:19:46.161Z,89.61
2018-12-26T06:20:46.148Z,89.61
2018-12-26T06:21:46.221Z,89.75
2018-12-26T06:22:46.135Z,89.86
2018-12-26T06:23:46.118Z,89.44
2018-12-26T06:24:46.107Z,89.75
2018-12-26T06:25:46.095Z,89.34
2018-12-26T06:26:46.083Z,89.75
2018-12-26T06:27:51.459Z,89.65
2018-12-26T06:28:47.082Z,89.75
2018-12-26T06:29:46.050Z,89.65
2018-12-26T06:30:46.040Z,89.44
2018-12-26T06:31:46.032Z,89.65
2018-12-26T06:32:46.021Z,89.65
2018-12-26T06:33:46.016Z,89.54
2018-12-26T06:34:45.996Z,89.54
2018-12-26T06:35:45.985Z,89.75
2018-12-26T06:36:45.977Z,89.50
2018-12-26T06:37:45.974Z,90.26
2018-12-26T06:38:45.962Z,89.65
2018-12-26T06:39:45.943Z,89.65
2018-12-26T06:40:45.933Z,89.44
2018-12-26T06:41:45.925Z,89.44
2018-12-26T06:42:45.910Z,89.75
2018-12-26T06:43:45.910Z,89.34
2018-12-26T06:44:45.889Z,89.86
2018-12-26T06:45:45.878Z,89.65
2018-12-26T06:46:45.867Z,89.50
2018-12-26T06:47:45.860Z,89.65
2018-12-26T06:48:45.854Z,89.19
2018-12-26T06:49:45.838Z,89.75
2018-12-26T06:50:45.824Z,90.06
2018-12-26T06:51:45.813Z,89.71
2018-12-26T06:52:45.803Z,89.75
2018-12-26T06:53:45.805Z,89.44
2018-12-26T06:54:45.781Z,89.92
2018-12-26T06:55:45.770Z,89.86
2018-12-26T06:56:45.758Z,89.96
2018-12-26T06:57:45.747Z,89.65
2018-12-26T06:58:45.746Z,89.75
2018-12-26T06:59:45.726Z,89.86
2018-12-26T07:00:45.720Z,90.26
2018-12-26T07:01:45.704Z,89.96
2018-12-26T07:02:45.693Z,90.68
2018-12-26T07:03:45.692Z,90.26
2018-12-26T07:04:45.672Z,89.96
2018-12-26T07:05:45.663Z,90.26
2018-12-26T07:06:45.655Z,90.47
2018-12-26T07:07:45.640Z,90.26
2018-12-26T07:08:45.657Z,90.37
2018-12-26T07:09:45.620Z,90.47
2018-12-26T07:10:45.609Z,89.96
2018-12-26T07:11:45.597Z,90.58
2018-12-26T07:12:45.589Z,90.06
2018-12-26T07:13:45.577Z,90.58
2018-12-26T07:14:45.575Z,90.99
2018-12-26T07:15:45.555Z,90.37
2018-12-26T07:16:45.545Z,90.47
2018-12-26T07:17:45.535Z,90.26
2018-12-26T07:18:45.537Z,90.78
2018-12-26T07:19:45.519Z,90.78
2018-12-26T07:20:45.502Z,90.68
2018-12-26T07:21:45.490Z,90.78
2018-12-26T07:22:45.482Z,90.68
2018-12-26T07:23:45.469Z,90.68
2018-12-26T07:24:45.473Z,91.14
2018-12-26T07:25:45.447Z,90.83
2018-12-26T07:26:45.436Z,91.20
2018-12-26T07:27:45.426Z,90.78
2018-12-26T07:28:45.419Z,91.09
2018-12-26T07:29:45.412Z,91.20
2018-12-26T07:30:45.393Z,91.14
2018-12-26T07:31:45.384Z,90.83
2018-12-26T07:32:45.372Z,90.68
2018-12-26T07:33:45.362Z,90.99
2018-12-26T07:34:45.358Z,91.51
2018-12-26T07:35:45.345Z,92.03
2018-12-26T07:36:45.329Z,91.51
2018-12-26T07:37:45.317Z,91.20
2018-12-26T07:38:45.308Z,91.09
2018-12-26T07:39:45.308Z,91.30
2018-12-26T07:40:45.288Z,91.30
2018-12-26T07:41:45.276Z,90.89
2018-12-26T07:42:45.264Z,91.30
2018-12-26T07:43:45.256Z,90.37
2018-12-26T07:44:45.250Z,90.78
2018-12-26T07:45:45.231Z,90.68
2018-12-26T07:46:45.221Z,91.09
2018-12-26T07:47:45.213Z,90.78
2018-12-26T07:48:45.199Z,90.58
2018-12-26T07:49:45.196Z,91.30
2018-12-26T07:50:45.177Z,90.78
2018-12-26T07:51:45.173Z,91.41
2018-12-26T07:52:45.155Z,91.30
2018-12-26T07:53:45.184Z,90.78
2018-12-26T07:54:45.169Z,91.20
2018-12-26T07:55:45.123Z,91.09
2018-12-26T07:56:45.112Z,91.30
2018-12-26T07:57:45.102Z,90.78
2018-12-26T07:58:45.091Z,90.89
2018-12-26T07:59:45.081Z,90.68
2018-12-26T08:00:45.077Z,90.99
2018-12-26T08:01:45.059Z,90.89
2018-12-26T08:02:45.047Z,91.20
2018-12-26T08:03:45.040Z,91.20
2018-12-26T08:04:45.028Z,92.03
2018-12-26T08:05:45.024Z,91.51
2018-12-26T08:06:45.007Z,91.20
2018-12-26T08:07:44.994Z,90.99
2018-12-26T08:08:44.983Z,91.51
2018-12-26T08:09:44.975Z,91.61
2018-12-26T08:10:44.971Z,91.82
2018-12-26T08:11:44.951Z,91.41
2018-12-26T08:12:44.942Z,91.82
2018-12-26T08:13:44.935Z,91.41
2018-12-26T08:14:44.925Z,91.51
2018-12-26T08:15:44.917Z,91.51
2018-12-26T08:16:44.903Z,91.20
2018-12-26T08:17:44.887Z,91.61
2018-12-26T08:18:44.880Z,91.51
2018-12-26T08:19:44.867Z,91.51
2018-12-26T08:20:44.867Z,91.72
2018-12-26T08:21:44.862Z,91.61
2018-12-26T08:22:44.834Z,91.61
2018-12-26T08:23:44.823Z,91.61
2018-12-26T08:24:44.811Z,92.03
2018-12-26T08:25:44.836Z,91.93
2018-12-26T08:26:44.795Z,91.51
2018-12-26T08:27:44.848Z,92.24
2018-12-26T08:28:44.768Z,92.13
2018-12-26T08:29:44.758Z,92.03
2018-12-26T08:30:44.748Z,92.24
2018-12-26T08:31:44.748Z,92.03
2018-12-26T08:32:44.726Z,92.03
2018-12-26T08:33:44.716Z,92.55
2018-12-26T08:34:44.704Z,92.44
2018-12-26T08:35:44.694Z,92.55
2018-12-26T08:36:44.691Z,92.44
2018-12-26T08:37:44.674Z,92.65
2018-12-26T08:38:44.661Z,92.55
2018-12-26T08:39:44.655Z,92.96
2018-12-26T08:40:44.641Z,93.16
2018-12-26T08:41:44.637Z,93.06
2018-12-26T08:42:44.618Z,93.27
2018-12-26T08:43:44.608Z,93.16
2018-12-26T08:44:44.600Z,93.06
2018-12-26T08:45:44.605Z,92.76
2018-12-26T08:46:44.585Z,93.27
2018-12-26T08:47:44.565Z,93.23
2018-12-26T08:48:44.554Z,93.16
2018-12-26T08:49:44.546Z,93.43
2018-12-26T08:50:44.535Z,93.48
2018-12-26T08:51:44.533Z,93.43
2018-12-26T08:52:44.512Z,93.58
2018-12-26T08:53:44.503Z,93.48
2018-12-26T08:54:44.491Z,93.48
2018-12-26T08:55:44.481Z,93.99
2018-12-26T08:56:44.477Z,93.74
2018-12-26T08:57:44.457Z,93.85
2018-12-26T08:58:44.447Z,93.85
2018-12-26T08:59:44.436Z,93.79
2018-12-26T09:00:44.426Z,93.89
2018-12-26T09:01:44.450Z,93.79
2018-12-26T09:02:44.407Z,93.64
2018-12-26T09:03:44.393Z,94.06
2018-12-26T09:04:44.390Z,93.79
2018-12-26T09:05:44.371Z,94.20
2018-12-26T09:06:44.360Z,93.79
2018-12-26T09:07:44.358Z,93.79
2018-12-26T09:08:44.342Z,94.51
2018-12-26T09:09:44.328Z,94.16
2018-12-26T09:10:44.318Z,94.72
2018-12-26T09:11:44.307Z,94.20
2018-12-26T09:12:44.361Z,94.20
2018-12-26T09:13:44.289Z,94.62
2018-12-26T09:14:44.284Z,95.34
2018-12-26T09:15:44.264Z,94.93
2018-12-26T09:16:44.253Z,94.78
2018-12-26T09:17:44.251Z,95.24
2018-12-26T09:18:44.233Z,94.72
2018-12-26T09:19:44.230Z,95.09
2018-12-26T09:20:44.219Z,94.41
2018-12-26T09:21:44.200Z,94.31
2018-12-26T09:22:44.196Z,94.37
2018-12-26T09:23:44.178Z,93.95
2018-12-26T09:24:44.171Z,94.16
2018-12-26T09:25:44.163Z,94.51
2018-12-26T09:26:44.145Z,94.06
2018-12-26T09:27:44.210Z,94.16
2018-12-26T09:28:44.195Z,94.16
2018-12-26T09:29:44.115Z,94.57
2018-12-26T09:30:44.112Z,95.24
2018-12-26T09:31:44.093Z,94.06
2018-12-26T09:32:44.093Z,94.51
2018-12-26T09:33:44.072Z,94.62
2018-12-26T09:34:44.060Z,94.57
2018-12-26T09:35:44.050Z,95.19
2018-12-26T09:36:44.040Z,94.98
2018-12-26T09:37:44.039Z,94.68
2018-12-26T09:38:44.017Z,94.82
2018-12-26T09:39:44.008Z,94.78
2018-12-26T09:40:44.023Z,94.72
2018-12-26T09:41:43.985Z,94.62
2018-12-26T09:42:43.987Z,94.57
2018-12-26T09:43:43.966Z,94.37
2018-12-26T09:44:43.954Z,94.31
2018-12-26T09:45:44.652Z,94.41
2018-12-26T09:46:43.933Z,94.93
2018-12-26T09:47:43.939Z,94.72
2018-12-26T09:48:43.910Z,94.72
2018-12-26T09:49:43.903Z,94.51
2018-12-26T09:50:43.890Z,94.51
2018-12-26T09:51:43.880Z,95.34
2018-12-26T09:52:43.879Z,94.62
2018-12-26T09:53:43.857Z,94.31
2018-12-26T09:54:43.855Z,95.09
2018-12-26T09:55:43.856Z,94.82
2018-12-26T09:56:43.825Z,94.16
2018-12-26T09:57:43.824Z,94.31
2018-12-26T09:58:52.287Z,94.20
2018-12-26T09:59:44.794Z,94.10
2018-12-26T10:00:43.784Z,94.10
2018-12-26T10:01:43.772Z,95.03
2018-12-26T10:02:43.799Z,95.03
2018-12-26T10:03:43.751Z,94.98
2018-12-26T10:04:43.740Z,94.68
2018-12-26T10:05:43.740Z,94.98
2018-12-26T10:06:43.718Z,95.14
2018-12-26T10:07:43.724Z,94.98
2018-12-26T10:08:43.698Z,94.72
2018-12-26T10:09:43.699Z,95.03
2018-12-26T10:10:43.704Z,94.82
2018-12-26T10:11:43.695Z,95.24
2018-12-26T10:12:43.685Z,94.51
2018-12-26T10:13:43.648Z,94.72
2018-12-26T10:14:43.633Z,95.14
2018-12-26T10:15:43.623Z,94.68
2018-12-26T10:16:43.611Z,94.72
2018-12-26T10:17:43.696Z,94.51
2018-12-26T10:18:43.593Z,95.19
2018-12-26T10:19:43.579Z,95.09
2018-12-26T10:20:43.569Z,95.34
2018-12-26T10:21:43.558Z,94.72
2018-12-26T10:22:43.548Z,94.82
2018-12-26T10:23:43.549Z,94.72
2018-12-26T10:24:43.528Z,95.09
2018-12-26T10:25:43.515Z,95.75
2018-12-26T10:26:43.505Z,94.82
2018-12-26T10:27:43.493Z,95.14
2018-12-26T10:28:43.492Z,94.72
2018-12-26T10:29:43.478Z,95.14
2018-12-26T10:30:43.467Z,95.14
2018-12-26T10:31:43.449Z,94.82
2018-12-26T10:32:43.440Z,95.03
2018-12-26T10:33:43.494Z,94.68
2018-12-26T10:34:43.419Z,95.14
2018-12-26T10:35:43.414Z,95.03
2018-12-26T10:36:43.396Z,94.82
2018-12-26T10:37:43.387Z,94.62
2018-12-26T10:38:43.382Z,94.72
2018-12-26T10:39:43.363Z,95.24
2018-12-26T10:40:43.461Z,95.24
2018-12-26T10:41:43.343Z,95.14
2018-12-26T10:42:43.331Z,95.14
2018-12-26T10:43:43.333Z,95.44
2018-12-26T10:44:43.310Z,95.14
2018-12-26T10:45:43.299Z,95.24
2018-12-26T10:46:43.290Z,95.14
2018-12-26T10:47:43.277Z,95.14
2018-12-26T10:48:43.297Z,95.24
2018-12-26T10:49:43.256Z,95.14
2018-12-26T10:50:43.246Z,94.93
2018-12-26T10:51:43.246Z,95.14
2018-12-26T10:52:43.224Z,95.29
2018-12-26T10:53:43.216Z,95.44
2018-12-26T10:54:43.212Z,94.62
2018-12-26T10:55:43.217Z,95.34
2018-12-26T10:56:43.181Z,94.93
2018-12-26T10:57:43.170Z,94.93
2018-12-26T10:58:43.161Z,94.93
2018-12-26T10:59:43.157Z,95.09
2018-12-26T11:00:43.245Z,95.09
2018-12-26T11:01:43.127Z,94.98
2018-12-26T11:02:43.116Z,94.98
2018-12-26T11:03:43.108Z,95.24
2018-12-26T11:04:43.102Z,95.03
2018-12-26T11:05:43.099Z,95.09
2018-12-26T11:06:43.074Z,95.19
2018-12-26T11:07:43.065Z,94.98
2018-12-26T11:08:43.051Z,95.03
2018-12-26T11:09:43.049Z,94.93
2018-12-26T11:10:43.029Z,95.92
2018-12-26T11:11:43.020Z,95.92
2018-12-26T11:12:43.009Z,95.96
2018-12-26T11:13:42.998Z,95.40
2018-12-26T11:14:42.999Z,95.92
2018-12-26T11:15:42.975Z,95.92
2018-12-26T11:16:42.967Z,96.12
2018-12-26T11:17:42.954Z,96.37
2018-12-26T11:18:42.943Z,96.37
2018-12-26T11:19:42.942Z,95.61
2018-12-26T11:20:42.921Z,95.65
2018-12-26T11:21:42.911Z,96.12
2018-12-26T11:22:42.913Z,96.12
2018-12-26T11:23:42.889Z,96.02
2018-12-26T11:24:42.887Z,96.33
2018-12-26T11:25:42.867Z,95.61
2018-12-26T11:26:42.856Z,95.71
2018-12-26T11:27:42.847Z,96.23
2018-12-26T11:28:42.845Z,96.12
2018-12-26T11:29:42.855Z,96.12
2018-12-26T11:30:42.814Z,96.37
2018-12-26T11:31:42.802Z,96.33
2018-12-26T11:32:42.798Z,96.23
2018-12-26T11:33:42.787Z,96.12
2018-12-26T11:34:42.786Z,96.12
2018-12-26T11:35:42.768Z,96.33
2018-12-26T11:36:42.749Z,96.23
2018-12-26T11:37:42.739Z,96.44
2018-12-26T11:38:42.738Z,96.12
2018-12-26T11:39:42.717Z,96.23
2018-12-26T11:40:42.718Z,96.54
2018-12-26T11:41:42.695Z,96.02
2018-12-26T11:42:42.689Z,96.23
2018-12-26T11:43:42.675Z,96.12
2018-12-26T11:44:42.663Z,95.92
2018-12-26T11:45:42.663Z,96.02
2018-12-26T11:46:42.642Z,96.85
2018-12-26T11:47:42.636Z,96.95
2018-12-26T11:48:42.621Z,96.23
2018-12-26T11:49:42.611Z,96.75
2018-12-26T11:50:42.610Z,96.33
2018-12-26T11:51:42.590Z,96.33
2018-12-26T11:52:42.578Z,96.02
2018-12-26T11:53:42.567Z,95.92
2018-12-26T11:54:42.560Z,96.23
2018-12-26T11:55:42.560Z,96.59
2018-12-26T11:56:42.537Z,96.95
2018-12-26T11:57:42.531Z,96.29
2018-12-26T11:58:42.514Z,95.71
2018-12-26T11:59:42.503Z,96.08
2018-12-26T12:00:42.502Z,96.33
2018-12-26T12:01:42.482Z,96.85
2018-12-26T12:02:42.473Z,96.95
2018-12-26T12:03:42.469Z,96.33
2018-12-26T12:04:42.452Z,96.23
2018-12-26T12:05:42.448Z,96.02
2018-12-26T12:06:42.428Z,95.71
2018-12-26T12:07:42.420Z,96.02
2018-12-26T12:08:42.411Z,95.67
2018-12-26T12:09:42.404Z,96.19
2018-12-26T12:10:42.397Z,96.54
2018-12-26T12:11:42.375Z,96.59
2018-12-26T12:12:42.366Z,96.54
2018-12-26T12:13:42.359Z,96.80
2018-12-26T12:14:42.346Z,96.70
2018-12-26T12:15:42.343Z,96.80
2018-12-26T12:16:42.323Z,96.75
2018-12-26T12:17:42.311Z,96.95
2018-12-26T12:18:42.301Z,96.70
2018-12-26T12:19:42.292Z,96.29
2018-12-26T12:20:42.337Z,96.85
2018-12-26T12:21:42.269Z,96.54
2018-12-26T12:22:42.259Z,96.49
2018-12-26T12:23:42.247Z,96.95
2018-12-26T12:24:42.237Z,96.91
2018-12-26T12:25:42.226Z,96.59
2018-12-26T12:26:42.228Z,96.70
2018-12-26T12:27:42.205Z,96.75
2018-12-26T12:28:42.195Z,96.39
2018-12-26T12:29:42.185Z,96.64
2018-12-26T12:30:42.178Z,96.70
2018-12-26T12:31:42.169Z,96.59
2018-12-26T12:32:42.176Z,96.59
2018-12-26T12:33:42.143Z,96.39
2018-12-26T12:34:42.150Z,97.11
2018-12-26T12:35:42.120Z,97.11
2018-12-26T12:36:42.186Z,96.70
2018-12-26T12:37:42.098Z,96.70
2018-12-26T12:38:42.101Z,96.91
2018-12-26T12:39:42.076Z,97.22
2018-12-26T12:40:42.065Z,96.59
2018-12-26T12:41:42.068Z,96.59
2018-12-26T12:42:42.045Z,97.01
2018-12-26T12:43:42.040Z,96.59
2018-12-26T12:44:42.025Z,96.39
2018-12-26T12:45:42.014Z,97.01
2018-12-26T12:46:42.010Z,96.80
2018-12-26T12:47:41.993Z,96.59
2018-12-26T12:48:41.985Z,96.91
2018-12-26T12:49:41.972Z,96.49
2018-12-26T12:50:41.965Z,96.59
2018-12-26T12:51:41.957Z,96.59
2018-12-26T12:52:41.937Z,96.70